createdAt,value
2023-02-16T00:01:25.844Z,99.61
2023-02-16T00:03:54.755Z,99.75
2023-02-16T00:06:22.318Z,98.43
2023-02-16T00:08:52.509Z,98.45
2023-02-16T00:11:49.883Z,98.78
2023-02-16T00:14:18.277Z,98.61
2023-02-16T00:16:45.847Z,98.76
2023-02-16T00:19:18.665Z,98.76
2023-02-16T00:21:46.183Z,98.78
2023-02-16T00:24:15.295Z,99.13
2023-02-16T00:26:43.468Z,98.62
2023-02-16T00:29:16.431Z,98.58
2023-02-16T00:31:44.005Z,98.92
2023-02-16T00:34:26.549Z,98.63
2023-02-16T00:36:54.122Z,98.96
2023-02-16T00:39:24.868Z,99.03
2023-02-16T00:41:53.754Z,99.01
2023-02-16T00:44:30.759Z,98.50
2023-02-16T00:46:58.497Z,98.36
2023-02-16T00:49:26.016Z,98.12
2023-02-16T00:51:53.616Z,98.25
2023-02-16T00:54:21.163Z,97.81
2023-02-16T00:56:50.035Z,97.24
2023-02-16T00:59:19.708Z,97.25
2023-02-16T01:01:47.364Z,97.46
2023-02-16T01:04:21.359Z,97.50
2023-02-16T01:07:06.687Z,97.85
2023-02-16T01:09:52.266Z,98.39
2023-02-16T01:12:21.702Z,98.30
2023-02-16T01:14:53.165Z,98.17
2023-02-16T01:17:20.641Z,98.34
2023-02-16T01:19:48.120Z,98.40
2023-02-16T01:22:15.776Z,98.80
2023-02-16T01:24:43.269Z,98.81
2023-02-16T01:27:12.115Z,100.00
2023-02-16T01:29:40.936Z,99.50
2023-02-16T01:32:08.496Z,99.19
2023-02-16T01:34:36.028Z,98.60
2023-02-16T01:37:03.622Z,98.70
2023-02-16T01:39:31.111Z,98.34
2023-02-16T01:42:05.671Z,97.83
2023-02-16T01:44:36.611Z,97.83
2023-02-16T01:47:11.987Z,98.04
2023-02-16T01:49:39.484Z,98.15
2023-02-16T01:52:13.161Z,98.28
2023-02-16T01:54:44.507Z,99.11
2023-02-16T01:57:23.442Z,99.17
2023-02-16T02:00:08.401Z,99.61
2023-02-16T02:02:38.349Z,99.92
2023-02-16T02:05:30.258Z,99.37
2023-02-16T02:08:00.837Z,99.65
2023-02-16T02:10:32.127Z,100.00
2023-02-16T02:13:05.858Z,100.00
2023-02-16T02:15:34.267Z,100.00
2023-02-16T02:18:03.357Z,100.00
2023-02-16T02:21:00.559Z,100.00
2023-02-16T02:23:40.477Z,100.00
2023-02-16T02:26:36.180Z,100.00
2023-02-16T02:29:16.867Z,100.00
2023-02-16T02:31:51.021Z,100.00
2023-02-16T02:34:25.123Z,100.00
2023-02-16T02:36:58.485Z,100.00
2023-02-16T02:39:33.203Z,100.00
2023-02-16T02:42:04.825Z,100.00
2023-02-16T02:44:32.867Z,100.00
2023-02-16T02:47:00.661Z,100.00
2023-02-16T02:49:28.266Z,100.00
2023-02-16T02:51:55.954Z,100.00
2023-02-16T02:54:43.317Z,100.00
2023-02-16T02:57:33.523Z,100.00
2023-02-16T03:00:20.262Z,100.00
2023-02-16T03:02:50.635Z,100.00
2023-02-16T03:05:19.675Z,100.00
2023-02-16T03:07:47.927Z,100.00
2023-02-16T03:10:34.537Z,100.00
2023-02-16T03:13:05.371Z,100.00
2023-02-16T03:15:33.103Z,100.00
2023-02-16T03:18:18.799Z,100.00
2023-02-16T03:21:04.918Z,100.00
2023-02-16T03:23:50.478Z,100.00
2023-02-16T03:26:37.422Z,100.00
2023-02-16T03:29:21.884Z,100.00
2023-02-16T03:31:49.756Z,100.00
2023-02-16T03:34:18.449Z,100.00
2023-02-16T03:36:48.507Z,100.00
2023-02-16T03:39:16.248Z,100.00
2023-02-16T03:41:46.854Z,100.00
2023-02-16T03:44:15.910Z,100.00
2023-02-16T03:46:43.719Z,100.00
2023-02-16T03:49:11.347Z,100.00
2023-02-16T03:51:38.887Z,100.00
2023-02-16T03:54:06.481Z,100.00
2023-02-16T03:56:34.080Z,100.00
2023-02-16T03:59:01.572Z,100.00
2023-02-16T04:01:30.619Z,100.00
2023-02-16T04:03:58.204Z,100.00
2023-02-16T04:06:25.855Z,100.00
2023-02-16T04:08:54.489Z,100.00
2023-02-16T04:11:39.786Z,100.00
2023-02-16T04:14:07.590Z,100.00
2023-02-16T04:16:36.594Z,100.00
2023-02-16T04:19:04.106Z,100.00
2023-02-16T04:21:31.600Z,100.00
2023-02-16T04:23:59.128Z,100.00
2023-02-16T04:26:26.820Z,100.00
2023-02-16T04:28:54.324Z,100.00
2023-02-16T04:31:21.956Z,100.00
2023-02-16T04:33:50.880Z,100.00
2023-02-16T04:36:18.562Z,100.00
2023-02-16T04:38:46.110Z,100.00
2023-02-16T04:41:13.625Z,100.00
2023-02-16T04:43:41.171Z,100.00
2023-02-16T04:46:08.711Z,100.00
2023-02-16T04:48:36.197Z,100.00
2023-02-16T04:51:06.341Z,100.00
2023-02-16T04:53:34.012Z,100.00
2023-02-16T04:56:01.520Z,100.00
2023-02-16T04:58:29.090Z,100.00
2023-02-16T05:00:56.756Z,100.00
2023-02-16T05:03:24.286Z,100.00
2023-02-16T05:05:51.777Z,100.00
2023-02-16T05:08:20.954Z,100.00
2023-02-16T05:11:08.677Z,100.00
2023-02-16T05:14:02.312Z,100.00
2023-02-16T05:16:29.972Z,100.00
2023-02-16T05:18:58.819Z,100.00
2023-02-16T05:21:32.468Z,100.00
2023-02-16T05:24:03.089Z,100.00
2023-02-16T05:26:30.704Z,100.00
2023-02-16T05:28:58.302Z,100.00
2023-02-16T05:31:26.089Z,100.00
2023-02-16T05:33:53.697Z,100.00
2023-02-16T05:36:21.930Z,100.00
2023-02-16T05:38:49.466Z,100.00
2023-02-16T05:41:24.264Z,100.00
2023-02-16T05:43:53.099Z,100.00
2023-02-16T05:46:21.143Z,100.00
2023-02-16T05:48:48.973Z,100.00
2023-02-16T05:51:16.668Z,100.00
2023-02-16T05:53:44.227Z,100.00
2023-02-16T05:56:12.093Z,100.00
2023-02-16T05:58:41.029Z,100.00
2023-02-16T06:01:08.522Z,100.00
2023-02-16T06:03:36.623Z,100.00
2023-02-16T06:06:05.525Z,100.00
2023-02-16T06:08:33.732Z,100.00
2023-02-16T06:11:01.578Z,100.00
2023-02-16T06:13:29.269Z,100.00
2023-02-16T06:16:00.226Z,100.00
2023-02-16T06:18:27.989Z,100.00
2023-02-16T06:20:57.749Z,100.00
2023-02-16T06:23:25.258Z,100.00
2023-02-16T06:25:52.722Z,100.00
2023-02-16T06:28:20.208Z,100.00
2023-02-16T06:30:47.701Z,100.00
2023-02-16T06:33:16.527Z,100.00
2023-02-16T06:35:43.982Z,100.00
2023-02-16T06:38:11.677Z,100.00
2023-02-16T06:40:39.193Z,100.00
2023-02-16T06:43:06.713Z,100.00
2023-02-16T06:45:34.200Z,100.00
2023-02-16T06:48:01.830Z,100.00
2023-02-16T06:50:30.728Z,100.00
2023-02-16T06:52:58.211Z,100.00
2023-02-16T06:55:25.681Z,100.00
2023-02-16T06:57:53.164Z,100.00
2023-02-16T07:00:21.240Z,100.00
2023-02-16T07:02:48.706Z,100.00
2023-02-16T07:05:16.696Z,100.00
2023-02-16T07:07:45.513Z,100.00
2023-02-16T07:10:14.341Z,100.00
2023-02-16T07:12:41.900Z,100.00
2023-02-16T07:15:10.201Z,100.00
2023-02-16T07:17:37.722Z,100.00
2023-02-16T07:20:06.032Z,100.00
2023-02-16T07:22:33.826Z,100.00
2023-02-16T07:25:03.178Z,100.00
2023-02-16T07:27:30.672Z,100.00
2023-02-16T07:29:58.243Z,100.00
2023-02-16T07:32:25.845Z,100.00
2023-02-16T07:34:53.364Z,100.00
2023-02-16T07:37:20.815Z,100.00
2023-02-16T07:39:48.670Z,100.00
2023-02-16T07:42:17.546Z,100.00
2023-02-16T07:44:45.042Z,100.00
2023-02-16T07:47:13.366Z,100.00
2023-02-16T07:49:41.198Z,100.00
2023-02-16T07:52:08.718Z,100.00
2023-02-16T07:54:36.477Z,100.00
2023-02-16T07:57:04.083Z,100.00
2023-02-16T07:59:32.926Z,100.00
2023-02-16T08:02:00.618Z,100.00
2023-02-16T08:04:28.250Z,100.00
2023-02-16T08:06:55.708Z,100.00
2023-02-16T08:09:23.194Z,100.00
2023-02-16T08:11:50.701Z,100.00
2023-02-16T08:14:18.205Z,100.00
2023-02-16T08:16:47.055Z,100.00
2023-02-16T08:19:14.571Z,100.00
2023-02-16T08:21:42.099Z,100.00
2023-02-16T08:24:13.064Z,100.00
2023-02-16T08:26:43.137Z,100.00
2023-02-16T08:29:13.036Z,100.00
2023-02-16T08:31:41.713Z,100.00
2023-02-16T08:34:11.139Z,100.00
2023-02-16T08:36:39.965Z,100.00
2023-02-16T08:39:09.744Z,100.00
2023-02-16T08:41:37.991Z,100.00
2023-02-16T08:44:07.058Z,100.00
2023-02-16T08:46:35.254Z,100.00
2023-02-16T08:49:03.036Z,100.00
2023-02-16T08:51:34.705Z,100.00
2023-02-16T08:54:05.834Z,100.00
2023-02-16T08:56:34.403Z,100.00
2023-02-16T08:59:02.499Z,100.00
2023-02-16T09:01:30.789Z,100.00
2023-02-16T09:03:58.874Z,100.00
2023-02-16T09:06:26.473Z,100.00
2023-02-16T09:08:57.197Z,100.00
2023-02-16T09:11:25.708Z,100.00
2023-02-16T09:13:53.164Z,100.00
2023-02-16T09:16:22.375Z,100.00
2023-02-16T09:18:50.784Z,100.00
2023-02-16T09:21:20.836Z,100.00
2023-02-16T09:23:49.950Z,100.00
2023-02-16T09:26:20.252Z,100.00
2023-02-16T09:28:48.537Z,100.00
2023-02-16T09:31:19.961Z,100.00
2023-02-16T09:33:47.692Z,100.00
2023-02-16T09:36:15.171Z,99.80
2023-02-16T09:38:43.083Z,99.97
2023-02-16T09:41:23.781Z,100.00
2023-02-16T09:43:55.970Z,100.00
2023-02-16T09:46:25.341Z,100.00
2023-02-16T09:48:53.041Z,100.00
2023-02-16T09:51:33.920Z,100.00
2023-02-16T09:54:09.766Z,100.00
2023-02-16T09:56:41.968Z,100.00
2023-02-16T09:59:13.069Z,100.00
2023-02-16T10:01:45.497Z,100.00
2023-02-16T10:04:25.416Z,100.00
2023-02-16T10:07:00.885Z,100.00
2023-02-16T10:09:30.475Z,100.00
2023-02-16T10:12:08.333Z,100.00
2023-02-16T10:14:42.213Z,100.00
2023-02-16T10:17:16.878Z,100.00
2023-02-16T10:19:49.586Z,99.63
2023-02-16T10:22:34.058Z,99.97
2023-02-16T10:25:07.730Z,99.60
2023-02-16T10:27:39.770Z,99.25
2023-02-16T10:30:19.828Z,97.91
2023-02-16T10:32:57.934Z,97.28
2023-02-16T10:35:31.489Z,97.71
2023-02-16T10:38:03.706Z,96.88
2023-02-16T10:40:38.810Z,97.16
2023-02-16T10:43:14.028Z,97.14
2023-02-16T10:45:49.524Z,96.80
2023-02-16T10:48:20.716Z,96.51
2023-02-16T10:50:54.763Z,95.71
2023-02-16T10:53:24.803Z,96.32
2023-02-16T10:55:54.443Z,95.38
2023-02-16T10:58:27.680Z,96.28
2023-02-16T11:00:59.648Z,96.06
2023-02-16T11:03:32.885Z,95.29
2023-02-16T11:06:13.934Z,95.22
2023-02-16T11:08:50.917Z,95.36
2023-02-16T11:11:22.824Z,95.40
2023-02-16T11:14:02.546Z,95.65
2023-02-16T11:16:30.731Z,95.04
2023-02-16T11:19:00.293Z,95.33
2023-02-16T11:21:45.031Z,93.97
2023-02-16T11:24:25.324Z,93.74
2023-02-16T11:27:01.959Z,94.25
2023-02-16T11:29:31.428Z,93.89
2023-02-16T11:32:03.878Z,93.53
2023-02-16T11:34:34.116Z,93.84
2023-02-16T11:37:06.243Z,93.88
2023-02-16T11:39:37.454Z,92.99
2023-02-16T11:42:08.109Z,93.01
2023-02-16T11:44:43.643Z,92.88
2023-02-16T11:47:24.500Z,92.54
2023-02-16T11:50:09.871Z,92.96
2023-02-16T11:52:37.565Z,93.18
2023-02-16T11:55:05.998Z,93.46
2023-02-16T11:57:35.802Z,94.37
2023-02-16T12:00:15.717Z,94.12
2023-02-16T12:03:03.321Z,93.74
2023-02-16T12:05:39.357Z,92.83
2023-02-16T12:08:22.158Z,91.20
2023-02-16T12:11:04.373Z,91.91
2023-02-16T12:13:37.531Z,90.61
2023-02-16T12:16:16.760Z,91.77
2023-02-16T12:18:52.173Z,91.97
2023-02-16T12:21:23.766Z,92.20
2023-02-16T12:23:56.823Z,92.12
2023-02-16T12:26:36.592Z,91.74
2023-02-16T12:29:20.549Z,91.17
2023-02-16T12:32:05.910Z,91.46
2023-02-16T12:34:41.068Z,89.89
2023-02-16T12:37:16.808Z,89.60
2023-02-16T12:39:50.849Z,89.36
2023-02-16T12:42:38.819Z,88.86
2023-02-16T12:45:10.839Z,88.14
2023-02-16T12:47:44.059Z,87.68
2023-02-16T12:50:19.624Z,87.60
2023-02-16T12:52:49.958Z,87.74
2023-02-16T12:55:22.894Z,87.60
2023-02-16T12:57:56.031Z,86.66
2023-02-16T13:00:27.330Z,86.77
2023-02-16T13:03:03.044Z,86.79
2023-02-16T13:05:33.309Z,86.90
2023-02-16T13:08:08.272Z,86.38
2023-02-16T13:10:37.728Z,86.93
2023-02-16T13:13:07.400Z,87.13
2023-02-16T13:15:38.051Z,87.10
2023-02-16T13:18:13.782Z,86.73
2023-02-16T13:20:45.592Z,85.05
2023-02-16T13:23:31.763Z,85.66
2023-02-16T13:26:11.974Z,86.18
2023-02-16T13:28:55.568Z,86.85
2023-02-16T13:31:30.615Z,86.35
2023-02-16T13:34:13.793Z,86.33
2023-02-16T13:36:50.713Z,86.70
2023-02-16T13:39:32.681Z,86.48
2023-02-16T13:42:44.040Z,86.47
2023-02-16T13:45:15.928Z,86.76
2023-02-16T13:47:47.457Z,86.96
2023-02-16T13:50:31.008Z,86.51
2023-02-16T13:53:02.149Z,86.73
2023-02-16T13:55:33.567Z,86.05
2023-02-16T13:58:07.574Z,85.95
2023-02-16T14:00:37.994Z,85.97
2023-02-16T14:03:12.238Z,86.52
2023-02-16T14:05:43.519Z,86.83
2023-02-16T14:08:30.336Z,86.23
2023-02-16T14:11:00.620Z,85.13
2023-02-16T14:13:29.752Z,86.28
2023-02-16T14:16:02.424Z,86.47
2023-02-16T14:18:33.646Z,86.89
2023-02-16T14:21:03.372Z,86.62
2023-02-16T14:23:34.401Z,86.93
2023-02-16T14:26:03.543Z,87.92
2023-02-16T14:29:12.431Z,88.01
2023-02-16T14:31:48.239Z,88.16
2023-02-16T14:34:20.244Z,87.79
2023-02-16T14:37:11.656Z,87.06
2023-02-16T14:40:04.050Z,86.60
2023-02-16T14:42:29.874Z,87.04
2023-02-16T14:45:10.131Z,86.36
2023-02-16T14:47:45.747Z,86.75
2023-02-16T14:50:32.869Z,85.71
2023-02-16T14:53:20.657Z,85.88
2023-02-16T14:56:19.427Z,86.42
2023-02-16T14:58:52.991Z,86.75
2023-02-16T15:01:22.511Z,87.32
2023-02-16T15:03:51.559Z,87.80
2023-02-16T15:06:23.773Z,87.52
2023-02-16T15:08:58.165Z,86.90
2023-02-16T15:11:31.818Z,87.65
2023-02-16T15:14:04.721Z,88.49
2023-02-16T15:16:33.499Z,88.43
2023-02-16T15:19:04.412Z,88.68
2023-02-16T15:21:31.939Z,89.11
2023-02-16T15:24:02.777Z,90.04
2023-02-16T15:26:33.062Z,89.52
2023-02-16T15:29:04.988Z,90.42
2023-02-16T15:31:34.527Z,90.30
2023-02-16T15:34:05.565Z,89.63
2023-02-16T15:36:35.305Z,90.85
2023-02-16T15:39:06.958Z,91.05
2023-02-16T15:41:36.178Z,91.37
2023-02-16T15:44:05.723Z,90.71
2023-02-16T15:46:36.564Z,90.57
2023-02-16T15:49:12.464Z,91.14
2023-02-16T15:51:43.004Z,90.83
2023-02-16T15:54:20.944Z,91.46
2023-02-16T15:56:49.663Z,92.18
2023-02-16T15:59:32.060Z,92.12
2023-02-16T16:02:02.677Z,92.33
2023-02-16T16:04:31.845Z,93.75
2023-02-16T16:07:00.103Z,93.49
2023-02-16T16:09:31.232Z,92.79
2023-02-16T16:12:01.861Z,92.56
2023-02-16T16:14:29.931Z,93.94
2023-02-16T16:16:57.570Z,93.51
2023-02-16T16:19:33.212Z,93.81
2023-02-16T16:22:01.174Z,93.93
2023-02-16T16:24:35.259Z,94.18
2023-02-16T16:27:08.067Z,94.21
2023-02-16T16:29:41.092Z,94.74
2023-02-16T16:32:18.590Z,94.21
2023-02-16T16:34:49.593Z,94.39
2023-02-16T16:37:29.657Z,94.55
2023-02-16T16:40:05.229Z,95.13
2023-02-16T16:42:34.088Z,95.82
2023-02-16T16:45:07.607Z,95.55
2023-02-16T16:47:38.176Z,95.88
2023-02-16T16:50:19.323Z,96.22
2023-02-16T16:52:48.659Z,95.50
2023-02-16T16:55:30.324Z,95.93
2023-02-16T16:58:00.335Z,95.70
2023-02-16T17:00:30.713Z,95.29
2023-02-16T17:02:58.407Z,95.39
2023-02-16T17:05:28.062Z,95.12
2023-02-16T17:07:55.520Z,95.43
2023-02-16T17:10:25.918Z,95.43
2023-02-16T17:12:59.658Z,94.09
2023-02-16T17:15:40.646Z,94.07
2023-02-16T17:18:10.574Z,94.00
2023-02-16T17:20:38.126Z,94.22
2023-02-16T17:23:06.056Z,94.23
2023-02-16T17:25:37.136Z,93.90
2023-02-16T17:28:06.705Z,94.45
2023-02-16T17:30:42.872Z,94.63
2023-02-16T17:33:11.116Z,93.61
2023-02-16T17:35:41.019Z,94.43
2023-02-16T17:38:20.580Z,94.27
2023-02-16T17:40:48.376Z,94.45
2023-02-16T17:43:21.713Z,94.99
2023-02-16T17:45:50.056Z,94.27
2023-02-16T17:48:20.168Z,95.06
2023-02-16T17:50:49.229Z,94.92
2023-02-16T17:53:18.738Z,94.03
2023-02-16T17:55:47.448Z,94.26
2023-02-16T17:58:17.271Z,94.97
2023-02-16T18:00:47.611Z,94.85
2023-02-16T18:03:15.427Z,94.17
2023-02-16T18:05:43.162Z,94.18
2023-02-16T18:08:11.964Z,94.92
2023-02-16T18:10:41.715Z,94.66
2023-02-16T18:13:10.760Z,94.43
2023-02-16T18:15:40.685Z,94.61
2023-02-16T18:18:11.219Z,94.92
2023-02-16T18:20:38.903Z,94.52
2023-02-16T18:23:06.411Z,95.59
2023-02-16T18:25:34.094Z,95.60
2023-02-16T18:28:01.581Z,95.61
2023-02-16T18:30:29.138Z,96.40
2023-02-16T18:32:58.197Z,97.38
2023-02-16T18:35:25.644Z,97.20
2023-02-16T18:37:53.298Z,98.02
2023-02-16T18:40:22.093Z,98.60
2023-02-16T18:42:49.694Z,98.35
2023-02-16T18:45:17.607Z,98.39
2023-02-16T18:47:45.262Z,98.60
2023-02-16T18:50:14.577Z,98.28
2023-02-16T18:52:43.246Z,98.10
2023-02-16T18:55:11.190Z,98.62
2023-02-16T18:57:39.071Z,98.34
2023-02-16T19:00:08.737Z,98.79
2023-02-16T19:02:37.061Z,98.17
2023-02-16T19:05:06.822Z,98.55
2023-02-16T19:07:36.131Z,98.02
2023-02-16T19:10:04.431Z,97.81
2023-02-16T19:12:32.215Z,97.50
2023-02-16T19:15:00.449Z,98.52
2023-02-16T19:17:27.987Z,97.95
2023-02-16T19:19:55.647Z,98.57
2023-02-16T19:22:26.826Z,98.41
2023-02-16T19:24:57.894Z,98.55
2023-02-16T19:27:28.029Z,98.25
2023-02-16T19:29:58.203Z,97.47
2023-02-16T19:32:26.915Z,97.64
2023-02-16T19:35:00.437Z,97.91
2023-02-16T19:37:29.286Z,97.29
2023-02-16T19:39:58.398Z,97.68
2023-02-16T19:42:26.012Z,97.93
2023-02-16T19:44:56.551Z,97.88
2023-02-16T19:47:24.193Z,97.91
2023-02-16T19:49:51.895Z,98.23
2023-02-16T19:52:19.424Z,98.41
2023-02-16T19:54:47.075Z,98.49
2023-02-16T19:57:16.169Z,98.23
2023-02-16T19:59:46.582Z,97.62
2023-02-16T20:02:16.700Z,97.35
2023-02-16T20:04:44.368Z,97.49
2023-02-16T20:07:12.149Z,97.44
2023-02-16T20:09:48.624Z,97.70
2023-02-16T20:12:17.524Z,97.87
2023-02-16T20:14:45.280Z,97.15
2023-02-16T20:17:12.919Z,97.34
2023-02-16T20:19:40.733Z,97.52
2023-02-16T20:22:08.439Z,96.95
2023-02-16T20:24:36.483Z,97.16
2023-02-16T20:27:04.995Z,97.05
2023-02-16T20:29:35.211Z,97.21
2023-02-16T20:32:04.918Z,97.21
2023-02-16T20:34:33.633Z,96.44
2023-02-16T20:37:01.393Z,96.57
2023-02-16T20:39:33.124Z,96.41
2023-02-16T20:42:02.714Z,96.62
2023-02-16T20:44:30.374Z,96.38
2023-02-16T20:47:01.616Z,96.74
2023-02-16T20:49:29.298Z,96.93
2023-02-16T20:51:56.985Z,97.34
2023-02-16T20:54:24.569Z,96.77
2023-02-16T20:56:52.186Z,96.47
2023-02-16T20:59:19.646Z,96.33
2023-02-16T21:01:50.258Z,96.27
2023-02-16T21:04:20.861Z,95.84
2023-02-16T21:06:48.643Z,95.37
2023-02-16T21:09:16.720Z,95.97
2023-02-16T21:11:44.516Z,94.67
2023-02-16T21:14:15.430Z,95.14
2023-02-16T21:16:43.480Z,95.64
2023-02-16T21:19:22.243Z,94.83
2023-02-16T21:21:53.645Z,95.14
2023-02-16T21:24:28.624Z,95.70
2023-02-16T21:26:58.404Z,94.52
2023-02-16T21:29:26.012Z,94.87
2023-02-16T21:31:53.687Z,95.20
2023-02-16T21:34:21.683Z,94.83
2023-02-16T21:36:49.314Z,94.35
2023-02-16T21:39:18.269Z,94.46
2023-02-16T21:41:47.122Z,94.88
2023-02-16T21:44:18.986Z,94.93
2023-02-16T21:46:47.942Z,94.15
2023-02-16T21:49:17.136Z,93.88
2023-02-16T21:51:45.409Z,93.65
2023-02-16T21:54:15.514Z,94.02
2023-02-16T21:56:45.483Z,94.04
2023-02-16T21:59:14.497Z,94.47
2023-02-16T22:01:43.724Z,94.14
2023-02-16T22:04:12.473Z,94.58
2023-02-16T22:06:42.491Z,93.87
2023-02-16T22:09:14.065Z,94.04
2023-02-16T22:11:42.069Z,93.89
2023-02-16T22:14:11.491Z,93.73
2023-02-16T22:16:39.616Z,93.48
2023-02-16T22:19:09.070Z,93.57
2023-02-16T22:21:37.837Z,93.58
2023-02-16T22:24:06.804Z,92.87
2023-02-16T22:26:35.876Z,93.09
2023-02-16T22:29:09.388Z,93.63
2023-02-16T22:31:38.965Z,93.27
2023-02-16T22:34:13.607Z,93.60
2023-02-16T22:36:42.199Z,93.30
2023-02-16T22:39:09.820Z,93.11
2023-02-16T22:41:39.900Z,93.25
2023-02-16T22:44:10.106Z,92.94
2023-02-16T22:46:39.112Z,93.42
2023-02-16T22:49:08.907Z,93.13
2023-02-16T22:51:37.515Z,93.36
2023-02-16T22:54:08.552Z,93.28
2023-02-16T22:56:37.619Z,92.98
2023-02-16T22:59:07.278Z,93.38
2023-02-16T23:01:35.348Z,93.06
2023-02-16T23:04:06.141Z,92.83
2023-02-16T23:06:37.555Z,92.81
2023-02-16T23:09:07.937Z,93.22
2023-02-16T23:11:37.495Z,92.79
2023-02-16T23:14:05.908Z,92.87
2023-02-16T23:16:35.777Z,93.54
2023-02-16T23:19:05.165Z,93.40
2023-02-16T23:21:34.090Z,93.36
2023-02-16T23:24:05.694Z,93.75
2023-02-16T23:26:33.666Z,94.98
2023-02-16T23:29:08.401Z,95.10
2023-02-16T23:31:37.418Z,94.93
2023-02-16T23:34:07.425Z,94.70
2023-02-16T23:36:36.217Z,94.58
2023-02-16T23:39:06.212Z,94.54
2023-02-16T23:41:33.735Z,95.46
2023-02-16T23:44:01.435Z,95.22
2023-02-16T23:46:29.004Z,95.38
2023-02-16T23:48:56.664Z,96.34
2023-02-16T23:51:25.466Z,95.44
2023-02-16T23:53:53.009Z,96.42
2023-02-16T23:56:27.338Z,96.50
2023-02-16T23:58:58.366Z,96.65
